Garanhuns, Brazil
Current Conditions -  °F | °C
As of 1:00 PM on Monday 26 Jan 2015 (Local Time) from SBMO Reporting Station
Scattered Clouds Scattered Clouds  
Wind Chill: 88°   Ceiling: Unl
Heat Index: 88°   Visibility: 6mi
Dew Point: 61°   Wind: 8mph
Humidity: 40%   Direction: 130°SE
Pressure: 29.94"   Gusts: NA
Location:  8.89°S, 36.5°W
Report Text: SBMO 261600Z 13007KT 9999 SCT020 31/16 Q1014
Loading
Personal Weather Stations






























Interactive Weather Map New forecast layout! Learn more

10-Day Weather Forecast

Advertisements
Track Severe Weather on mobile